Time;durP1;ratioP1;P1;durP2;ratioP2;P2;SDS_P1;SDS_P2;PMS_P1;PMS_P2;Temp;Humidity;BMP_temperature;BMP_pressure;BME280_temperature;BME280_humidity;BME280_pressure;Samples;Min_cycle;Max_cycle;Signal;HPM_P1;HPM_P2
2023/06/18 00:01:03;;;;;;;0.30;0.30;;;;;;;;;;5002765;28;20517;-78
2023/06/18 00:03:29;;;;;;;0.25;0.25;;;;;;;;;;5008474;28;20049;-79
2023/06/18 00:05:55;;;;;;;0.30;0.30;;;;;;;;;;5007365;28;20044;-77
2023/06/18 00:08:21;;;;;;;0.32;0.32;;;;;;;;;;5000252;28;20455;-78
2023/06/18 00:10:48;;;;;;;0.40;0.40;;;;;;;;;;4991270;28;20048;-79
2023/06/18 00:13:14;;;;;;;0.40;0.40;;;;;;;;;;5005230;28;20045;-78
2023/06/18 00:15:40;;;;;;;0.82;0.45;;;;;;;;;;4999461;28;20051;-78
2023/06/18 00:18:06;;;;;;;0.20;0.20;;;;;;;;;;5000616;28;20045;-78
2023/06/18 00:20:36;;;;;;;0.70;0.70;;;;;;;;;;4988626;28;20041;-78
2023/06/18 00:23:02;;;;;;;0.22;0.20;;;;;;;;;;5000463;28;20036;-78
2023/06/18 00:25:28;;;;;;;0.20;0.10;;;;;;;;;;4996628;28;20049;-78
2023/06/18 00:27:55;;;;;;;0.40;0.35;;;;;;;;;;4987111;28;20759;-78
2023/06/18 00:30:21;;;;;;;0.40;0.30;;;;;;;;;;5003144;28;20393;-78
2023/06/18 00:32:48;;;;;;;0.22;0.20;;;;;;;;;;5011824;28;20042;-78
2023/06/18 00:35:14;;;;;;;1.40;0.50;;;;;;;;;;4980410;28;20123;-78
2023/06/18 00:37:43;;;;;;;0.35;0.30;;;;;;;;;;4996874;28;20132;-78
2023/06/18 00:40:13;;;;;;;0.45;0.40;;;;;;;;;;5000618;28;20086;-77
2023/06/18 00:42:39;;;;;;;0.50;0.45;;;;;;;;;;5002304;28;20036;-77
2023/06/18 00:45:08;;;;;;;0.82;0.63;;;;;;;;;;5019576;23;20068;-86
2023/06/18 00:47:36;;;;;;;0.20;0.10;;;;;;;;;;5002674;28;20101;-89
2023/06/18 00:50:05;;;;;;;0.55;0.40;;;;;;;;;;4986531;28;20041;-88
2023/06/18 00:52:33;;;;;;;0.65;0.65;;;;;;;;;;4992815;28;20129;-87
2023/06/18 00:54:59;;;;;;;0.28;0.28;;;;;;;;;;4978118;28;20129;-84
2023/06/18 00:57:25;;;;;;;0.35;0.35;;;;;;;;;;4977463;28;20034;-85
2023/06/18 00:59:51;;;;;;;0.82;0.75;;;;;;;;;;4961104;28;20135;-84
2023/06/18 01:02:23;;;;;;;0.85;0.63;;;;;;;;;;4975536;28;20043;-85
2023/06/18 01:04:55;;;;;;;0.80;0.52;;;;;;;;;;4953108;28;20046;-85
2023/06/18 01:07:21;;;;;;;2.47;0.70;;;;;;;;;;4975319;28;21607;-83
2023/06/18 01:09:53;;;;;;;0.20;0.10;;;;;;;;;;4970442;28;20042;-84
2023/06/18 01:12:19;;;;;;;1.17;0.53;;;;;;;;;;4951045;28;20034;-82
2023/06/18 01:14:50;;;;;;;0.65;0.52;;;;;;;;;;4959948;28;20054;-82
2023/06/18 01:17:17;;;;;;;3.00;0.88;;;;;;;;;;4946580;28;20125;-81
2023/06/18 01:19:45;;;;;;;0.20;0.10;;;;;;;;;;4964974;28;20135;-84
2023/06/18 01:22:18;;;;;;;0.30;0.25;;;;;;;;;;4973224;28;20065;-85
2023/06/18 01:24:50;;;;;;;0.40;0.40;;;;;;;;;;4961262;28;20038;-88
2023/06/18 01:27:21;;;;;;;0.47;0.45;;;;;;;;;;4963214;28;20514;-87
2023/06/18 01:29:51;;;;;;;1.35;0.77;;;;;;;;;;4960492;28;20539;-83
2023/06/18 01:32:17;;;;;;;0.38;0.38;;;;;;;;;;4952363;28;20428;-84
2023/06/18 01:34:44;;;;;;;1.30;0.32;;;;;;;;;;4947199;28;20093;-82
2023/06/18 01:37:16;;;;;;;0.20;0.10;;;;;;;;;;4964681;28;20511;-83
2023/06/18 01:39:53;;;;;;;0.22;0.22;;;;;;;;;;4959007;28;20049;-83
2023/06/18 01:42:21;;;;;;;0.45;0.38;;;;;;;;;;4958638;28;20038;-82
2023/06/18 01:44:51;;;;;;;0.35;0.35;;;;;;;;;;4962448;28;20079;-84
2023/06/18 01:47:19;;;;;;;0.40;0.40;;;;;;;;;;4998337;28;20045;-82
2023/06/18 01:49:46;;;;;;;1.70;0.45;;;;;;;;;;4991494;28;20029;-83
2023/06/18 01:52:15;;;;;;;0.47;0.20;;;;;;;;;;4976023;28;20053;-81
2023/06/18 01:54:43;;;;;;;0.43;0.43;;;;;;;;;;4990718;28;20861;-83
2023/06/18 01:57:09;;;;;;;0.30;0.20;;;;;;;;;;4983102;28;20129;-83
2023/06/18 01:59:35;;;;;;;1.60;0.50;;;;;;;;;;4975049;28;20091;-84
2023/06/18 02:02:01;;;;;;;0.22;0.22;;;;;;;;;;4970542;28;20624;-83
2023/06/18 02:04:27;;;;;;;0.43;0.38;;;;;;;;;;4991511;28;20037;-83
2023/06/18 02:06:54;;;;;;;0.57;0.40;;;;;;;;;;4979147;28;20064;-83
2023/06/18 02:09:20;;;;;;;0.20;0.20;;;;;;;;;;4976044;28;20831;-84
2023/06/18 02:11:46;;;;;;;0.52;0.30;;;;;;;;;;4975731;28;20418;-86
2023/06/18 02:14:12;;;;;;;0.35;0.20;;;;;;;;;;4967878;28;20072;-87
2023/06/18 02:16:38;;;;;;;2.50;0.30;;;;;;;;;;4993126;28;20041;-87
2023/06/18 02:19:06;;;;;;;0.60;0.57;;;;;;;;;;4979237;28;20045;-85
2023/06/18 02:21:32;;;;;;;0.20;0.10;;;;;;;;;;4981865;28;20057;-84
2023/06/18 02:23:58;;;;;;;0.75;0.35;;;;;;;;;;4991065;28;20046;-84
2023/06/18 02:26:24;;;;;;;0.75;0.68;;;;;;;;;;4965904;28;20623;-85
2023/06/18 02:28:50;;;;;;;0.55;0.55;;;;;;;;;;4963229;28;20037;-85
2023/06/18 02:31:16;;;;;;;0.52;0.52;;;;;;;;;;4965807;28;20046;-83
2023/06/18 02:33:42;;;;;;;0.20;0.10;;;;;;;;;;4963638;28;20046;-85
2023/06/18 02:36:09;;;;;;;0.35;0.17;;;;;;;;;;4985042;28;20046;-84
2023/06/18 02:38:35;;;;;;;0.20;0.17;;;;;;;;;;4965256;28;20042;-84
2023/06/18 02:41:02;;;;;;;1.08;0.30;;;;;;;;;;4962128;28;20052;-82
2023/06/18 02:43:31;;;;;;;0.20;0.10;;;;;;;;;;4980194;28;20041;-83
2023/06/18 02:45:57;;;;;;;0.40;0.30;;;;;;;;;;4977975;28;20038;-85
2023/06/18 02:48:23;;;;;;;0.40;0.40;;;;;;;;;;4969255;28;20505;-81
2023/06/18 02:50:49;;;;;;;0.20;0.20;;;;;;;;;;4961134;28;20042;-84
2023/06/18 02:53:15;;;;;;;1.27;0.30;;;;;;;;;;4968812;28;20041;-84
2023/06/18 02:55:42;;;;;;;0.32;0.30;;;;;;;;;;4959623;28;20517;-85
2023/06/18 02:58:17;;;;;;;1.60;0.52;;;;;;;;;;4973924;28;20033;-83
2023/06/18 03:00:43;;;;;;;0.20;0.20;;;;;;;;;;4957732;28;20130;-82
2023/06/18 03:03:09;;;;;;;0.43;0.20;;;;;;;;;;4977428;28;20151;-83
2023/06/18 03:05:35;;;;;;;0.50;0.43;;;;;;;;;;4959969;28;20050;-82
2023/06/18 03:08:01;;;;;;;0.20;0.10;;;;;;;;;;4958766;28;22610;-83
2023/06/18 03:10:27;;;;;;;0.35;0.32;;;;;;;;;;4978593;28;20120;-81
2023/06/18 03:12:53;;;;;;;0.20;0.10;;;;;;;;;;4976626;28;20512;-81
2023/06/18 03:15:19;;;;;;;0.60;0.60;;;;;;;;;;4960370;28;20140;-82
2023/06/18 03:17:45;;;;;;;0.20;0.20;;;;;;;;;;4976597;28;20045;-85
2023/06/18 03:20:11;;;;;;;0.45;0.30;;;;;;;;;;4958894;28;20063;-83
2023/06/18 03:22:38;;;;;;;0.30;0.10;;;;;;;;;;4978771;28;20037;-81
2023/06/18 03:25:05;;;;;;;1.35;0.85;;;;;;;;;;4973363;28;20045;-81
2023/06/18 03:27:31;;;;;;;0.45;0.28;;;;;;;;;;4954188;28;21045;-81
2023/06/18 03:29:57;;;;;;;0.20;0.20;;;;;;;;;;4962915;28;20042;-82
2023/06/18 03:32:23;;;;;;;0.50;0.25;;;;;;;;;;4961243;28;20046;-83
2023/06/18 03:34:49;;;;;;;1.15;0.40;;;;;;;;;;4963463;28;20045;-85
2023/06/18 03:37:17;;;;;;;0.38;0.28;;;;;;;;;;4958481;28;22180;-83
2023/06/18 03:39:43;;;;;;;0.30;0.30;;;;;;;;;;4982525;28;20116;-81
2023/06/18 03:42:10;;;;;;;0.20;0.10;;;;;;;;;;4984079;28;20195;-81
2023/06/18 03:44:36;;;;;;;1.10;0.47;;;;;;;;;;4973957;28;20056;-82
2023/06/18 03:47:02;;;;;;;0.63;0.32;;;;;;;;;;4986752;28;20042;-83
2023/06/18 03:49:28;;;;;;;0.30;0.20;;;;;;;;;;4972269;28;20037;-82
2023/06/18 03:51:54;;;;;;;0.30;0.25;;;;;;;;;;4993004;28;20045;-82
2023/06/18 03:54:20;;;;;;;0.20;0.17;;;;;;;;;;4976245;28;20056;-85
2023/06/18 03:56:46;;;;;;;1.55;0.30;;;;;;;;;;4973287;28;20347;-83
2023/06/18 03:59:12;;;;;;;0.20;0.10;;;;;;;;;;4992547;28;20739;-81
2023/06/18 04:01:38;;;;;;;0.20;0.20;;;;;;;;;;4973819;28;20041;-82
2023/06/18 04:04:04;;;;;;;0.20;0.10;;;;;;;;;;4986864;28;22554;-82
2023/06/18 04:06:30;;;;;;;0.30;0.30;;;;;;;;;;4976475;28;20036;-81
2023/06/18 04:08:56;;;;;;;0.30;0.25;;;;;;;;;;4972781;28;20030;-81
2023/06/18 04:11:22;;;;;;;0.47;0.30;;;;;;;;;;4991365;28;20045;-82
2023/06/18 04:13:48;;;;;;;0.30;0.20;;;;;;;;;;4986739;28;20126;-81
2023/06/18 04:16:14;;;;;;;1.38;0.20;;;;;;;;;;4983954;28;20136;-82
2023/06/18 04:18:40;;;;;;;0.25;0.22;;;;;;;;;;5007839;28;20045;-81
2023/06/18 04:21:06;;;;;;;0.22;0.20;;;;;;;;;;4973217;28;20050;-82
2023/06/18 04:23:32;;;;;;;0.20;0.13;;;;;;;;;;4973783;28;20057;-81
2023/06/18 04:25:58;;;;;;;0.28;0.28;;;;;;;;;;4990494;28;20033;-82
2023/06/18 04:28:24;;;;;;;0.43;0.43;;;;;;;;;;4977294;28;20048;-80
2023/06/18 04:30:50;;;;;;;0.30;0.22;;;;;;;;;;4986875;28;20044;-82
2023/06/18 04:33:16;;;;;;;0.30;0.30;;;;;;;;;;4984221;28;20414;-83
2023/06/18 04:35:44;;;;;;;0.25;0.13;;;;;;;;;;4975038;28;20100;-82
2023/06/18 04:38:11;;;;;;;0.20;0.20;;;;;;;;;;4992367;28;20061;-81
2023/06/18 04:40:37;;;;;;;0.20;0.10;;;;;;;;;;4976569;28;20098;-81
2023/06/18 04:43:03;;;;;;;0.30;0.20;;;;;;;;;;4972190;28;20430;-79
2023/06/18 04:45:29;;;;;;;0.30;0.20;;;;;;;;;;4961762;28;20466;-82
2023/06/18 04:47:55;;;;;;;0.43;0.43;;;;;;;;;;4973698;28;20044;-82
2023/06/18 04:50:21;;;;;;;0.20;0.10;;;;;;;;;;4967253;28;20052;-82
2023/06/18 04:52:47;;;;;;;0.22;0.20;;;;;;;;;;4984006;28;20451;-83
2023/06/18 04:55:13;;;;;;;0.47;0.47;;;;;;;;;;4973699;28;20041;-79
2023/06/18 04:57:40;;;;;;;0.20;0.10;;;;;;;;;;4969064;28;20041;-82
2023/06/18 05:00:08;;;;;;;0.45;0.38;;;;;;;;;;4973509;28;20045;-83
2023/06/18 05:02:34;;;;;;;0.20;0.10;;;;;;;;;;4994728;28;20045;-81
2023/06/18 05:05:00;;;;;;;0.20;0.13;;;;;;;;;;4999064;28;21078;-82
2023/06/18 05:07:26;;;;;;;0.73;0.35;;;;;;;;;;4970267;28;20557;-82
2023/06/18 05:09:52;;;;;;;1.63;0.40;;;;;;;;;;4988208;28;20616;-82
2023/06/18 05:12:18;;;;;;;0.20;0.15;;;;;;;;;;4971780;28;20667;-82
2023/06/18 05:14:44;;;;;;;0.57;0.32;;;;;;;;;;4963205;28;20075;-83
2023/06/18 05:17:11;;;;;;;0.20;0.10;;;;;;;;;;4971884;28;20079;-82
2023/06/18 05:19:37;;;;;;;0.40;0.38;;;;;;;;;;4984851;28;20076;-81
2023/06/18 05:22:04;;;;;;;0.40;0.38;;;;;;;;;;4981953;28;20103;-81
2023/06/18 05:24:30;;;;;;;0.50;0.50;;;;;;;;;;4982037;28;20068;-82
2023/06/18 05:26:56;;;;;;;0.30;0.30;;;;;;;;;;4970797;28;20065;-82
2023/06/18 05:29:22;;;;;;;0.43;0.25;;;;;;;;;;4969262;28;20128;-81
2023/06/18 05:31:48;;;;;;;0.20;0.10;;;;;;;;;;4962790;28;20109;-82
2023/06/18 05:34:14;;;;;;;0.22;0.22;;;;;;;;;;4961966;28;20045;-82
2023/06/18 05:36:40;;;;;;;0.20;0.20;;;;;;;;;;4990935;28;20615;-82
2023/06/18 05:39:06;;;;;;;0.30;0.22;;;;;;;;;;4989426;28;20094;-82
2023/06/18 05:41:32;;;;;;;0.20;0.20;;;;;;;;;;4985320;28;20050;-84
2023/06/18 05:43:58;;;;;;;0.35;0.25;;;;;;;;;;4987471;28;20565;-84
2023/06/18 05:46:24;;;;;;;0.75;0.32;;;;;;;;;;4965504;28;20049;-83
2023/06/18 05:48:50;;;;;;;0.40;0.40;;;;;;;;;;4966474;28;20037;-83
2023/06/18 05:51:16;;;;;;;0.68;0.68;;;;;;;;;;4967508;28;20052;-83
2023/06/18 05:53:42;;;;;;;0.20;0.10;;;;;;;;;;4964688;28;20068;-83
2023/06/18 05:56:08;;;;;;;0.77;0.57;;;;;;;;;;4966384;28;20160;-82
2023/06/18 05:58:34;;;;;;;0.75;0.55;;;;;;;;;;4981061;28;20038;-81
2023/06/18 06:01:00;;;;;;;0.60;0.32;;;;;;;;;;4968198;28;20497;-83
2023/06/18 06:03:26;;;;;;;0.40;0.30;;;;;;;;;;4984965;28;20091;-83
2023/06/18 06:05:52;;;;;;;0.32;0.32;;;;;;;;;;4971283;28;20064;-83
2023/06/18 06:08:18;;;;;;;0.70;0.70;;;;;;;;;;4975558;28;20042;-82
2023/06/18 06:10:44;;;;;;;0.30;0.30;;;;;;;;;;4987266;28;20041;-82
2023/06/18 06:13:10;;;;;;;1.15;0.52;;;;;;;;;;4966973;28;20049;-85
2023/06/18 06:15:37;;;;;;;3.80;0.43;;;;;;;;;;4969130;28;20203;-85
2023/06/18 06:18:03;;;;;;;0.95;0.73;;;;;;;;;;4970096;28;20457;-85
2023/06/18 06:20:29;;;;;;;0.80;0.80;;;;;;;;;;4972242;28;20041;-84
2023/06/18 06:22:55;;;;;;;0.20;0.10;;;;;;;;;;4976922;28;20045;-84
2023/06/18 06:25:21;;;;;;;0.20;0.20;;;;;;;;;;4971028;28;20768;-84
2023/06/18 06:27:47;;;;;;;0.20;0.20;;;;;;;;;;4989582;28;20045;-85
2023/06/18 06:30:13;;;;;;;0.45;0.20;;;;;;;;;;4966878;28;20041;-85
2023/06/18 06:32:39;;;;;;;0.30;0.30;;;;;;;;;;4981564;28;20044;-84
2023/06/18 06:35:06;;;;;;;0.20;0.20;;;;;;;;;;4982486;28;20050;-87
2023/06/18 06:37:32;;;;;;;0.40;0.40;;;;;;;;;;4975108;28;20068;-85
2023/06/18 06:39:59;;;;;;;0.22;0.22;;;;;;;;;;4984050;28;20087;-85
2023/06/18 06:42:25;;;;;;;0.35;0.35;;;;;;;;;;4999375;28;20048;-87
2023/06/18 06:44:52;;;;;;;0.47;0.45;;;;;;;;;;4971732;28;20038;-83
2023/06/18 06:47:18;;;;;;;0.68;0.43;;;;;;;;;;4980625;22;20045;-78
2023/06/18 06:49:45;;;;;;;0.40;0.40;;;;;;;;;;4986498;28;20045;-78
2023/06/18 06:52:11;;;;;;;1.42;0.40;;;;;;;;;;4967193;28;20045;-77
2023/06/18 06:54:37;;;;;;;0.38;0.20;;;;;;;;;;4961613;28;20042;-78
2023/06/18 06:57:03;;;;;;;0.35;0.25;;;;;;;;;;4985126;28;20052;-79
2023/06/18 06:59:30;;;;;;;0.38;0.30;;;;;;;;;;4989297;28;20049;-77
2023/06/18 07:01:56;;;;;;;0.80;0.55;;;;;;;;;;4969329;28;20033;-77
2023/06/18 07:04:22;;;;;;;0.20;0.10;;;;;;;;;;4992803;28;20041;-77
2023/06/18 07:06:49;;;;;;;0.65;0.47;;;;;;;;;;4967938;28;20041;-82
2023/06/18 07:09:16;;;;;;;0.30;0.20;;;;;;;;;;4965047;28;20359;-78
2023/06/18 07:11:42;;;;;;;0.20;0.20;;;;;;;;;;4974222;28;20049;-79
2023/06/18 07:14:08;;;;;;;0.45;0.45;;;;;;;;;;4991112;28;20095;-78
2023/06/18 07:16:34;;;;;;;0.20;0.20;;;;;;;;;;4991744;28;20045;-78
2023/06/18 07:19:01;;;;;;;0.20;0.10;;;;;;;;;;4970537;28;20128;-76
2023/06/18 07:21:27;;;;;;;0.20;0.10;;;;;;;;;;4980506;28;20037;-78
2023/06/18 07:23:53;;;;;;;0.20;0.10;;;;;;;;;;4994925;28;20048;-78
2023/06/18 07:26:19;;;;;;;0.38;0.30;;;;;;;;;;4999225;28;20535;-78
2023/06/18 07:28:45;;;;;;;0.43;0.40;;;;;;;;;;5002642;28;20042;-78
2023/06/18 07:31:11;;;;;;;0.47;0.30;;;;;;;;;;4988825;28;20041;-77
2023/06/18 07:33:37;;;;;;;0.20;0.10;;;;;;;;;;5002193;28;20045;-78
2023/06/18 07:36:03;;;;;;;0.20;0.10;;;;;;;;;;4985856;28;20048;-78
2023/06/18 07:38:29;;;;;;;0.40;0.35;;;;;;;;;;5001559;28;20048;-78
2023/06/18 07:40:55;;;;;;;0.35;0.30;;;;;;;;;;5000382;28;20045;-78
2023/06/18 07:43:21;;;;;;;0.20;0.10;;;;;;;;;;4996201;28;20103;-77
2023/06/18 07:45:47;;;;;;;1.60;0.28;;;;;;;;;;4996695;28;20041;-78
2023/06/18 07:48:13;;;;;;;0.30;0.22;;;;;;;;;;4993842;28;20095;-78
2023/06/18 07:50:40;;;;;;;0.20;0.10;;;;;;;;;;4991925;28;20044;-78
2023/06/18 07:53:06;;;;;;;0.65;0.45;;;;;;;;;;5000822;28;20049;-79
2023/06/18 07:55:32;;;;;;;0.50;0.20;;;;;;;;;;4996256;28;20052;-78
2023/06/18 07:57:58;;;;;;;0.20;0.20;;;;;;;;;;5019138;28;20053;-79
2023/06/18 08:00:24;;;;;;;1.58;0.20;;;;;;;;;;5040089;28;20128;-78
2023/06/18 08:02:51;;;;;;;0.20;0.20;;;;;;;;;;5016196;28;20033;-77
2023/06/18 08:05:17;;;;;;;0.40;0.30;;;;;;;;;;5015382;28;20049;-79
2023/06/18 08:07:43;;;;;;;0.20;0.20;;;;;;;;;;5019260;28;20094;-78
2023/06/18 08:10:09;;;;;;;0.20;0.20;;;;;;;;;;5006022;28;20045;-79
2023/06/18 08:12:36;;;;;;;0.30;0.15;;;;;;;;;;5005279;28;20045;-80
2023/06/18 08:15:02;;;;;;;0.22;0.20;;;;;;;;;;5002376;28;21535;-81
2023/06/18 08:17:31;;;;;;;0.30;0.20;;;;;;;;;;5000110;28;20473;-82
2023/06/18 08:19:57;;;;;;;0.95;0.68;;;;;;;;;;5002924;28;20045;-81
2023/06/18 08:22:23;;;;;;;0.55;0.45;;;;;;;;;;4999806;28;20040;-78
2023/06/18 08:24:49;;;;;;;0.32;0.30;;;;;;;;;;5017696;28;20045;-79
2023/06/18 08:27:15;;;;;;;1.85;0.43;;;;;;;;;;5000361;28;20029;-79
2023/06/18 08:29:41;;;;;;;0.30;0.30;;;;;;;;;;4997449;28;20048;-78
2023/06/18 08:32:07;;;;;;;0.52;0.30;;;;;;;;;;5010975;28;22161;-77
2023/06/18 08:34:34;;;;;;;0.40;0.35;;;;;;;;;;4995959;28;20041;-79
2023/06/18 08:37:01;;;;;;;0.25;0.25;;;;;;;;;;4992943;28;20064;-78
2023/06/18 08:39:28;;;;;;;0.20;0.20;;;;;;;;;;5007757;28;20049;-79
2023/06/18 08:41:54;;;;;;;0.40;0.22;;;;;;;;;;4986245;28;20120;-78
2023/06/18 08:44:23;;;;;;;0.20;0.20;;;;;;;;;;5001619;28;20564;-79
2023/06/18 08:46:50;;;;;;;0.30;0.22;;;;;;;;;;4992173;28;20045;-79
2023/06/18 08:49:16;;;;;;;0.90;0.40;;;;;;;;;;5019434;28;20116;-78
2023/06/18 08:51:43;;;;;;;0.30;0.30;;;;;;;;;;4996491;28;20071;-80
2023/06/18 08:54:13;;;;;;;0.30;0.25;;;;;;;;;;5005670;28;20051;-79
2023/06/18 08:56:50;;;;;;;0.55;0.30;;;;;;;;;;4998087;28;20048;-79
2023/06/18 08:59:19;;;;;;;0.30;0.20;;;;;;;;;;4990672;28;20079;-79
2023/06/18 09:01:46;;;;;;;0.20;0.10;;;;;;;;;;4999866;28;20690;-80
2023/06/18 09:04:13;;;;;;;0.40;0.40;;;;;;;;;;5014428;28;20053;-80
2023/06/18 09:06:39;;;;;;;0.30;0.22;;;;;;;;;;5011467;28;20048;-80
2023/06/18 09:09:06;;;;;;;0.30;0.20;;;;;;;;;;4996787;28;20056;-80
2023/06/18 09:11:33;;;;;;;0.60;0.50;;;;;;;;;;5018662;28;20607;-81
2023/06/18 09:14:01;;;;;;;0.30;0.20;;;;;;;;;;4997304;28;20091;-80
2023/06/18 09:16:28;;;;;;;0.45;0.38;;;;;;;;;;5016483;28;20045;-81
2023/06/18 09:18:54;;;;;;;0.20;0.10;;;;;;;;;;5020128;28;20080;-81
2023/06/18 09:21:39;;;;;;;1.10;0.32;;;;;;;;;;5017496;28;20041;-80
2023/06/18 09:24:09;;;;;;;0.20;0.10;;;;;;;;;;5024179;28;20050;-79
2023/06/18 09:26:35;;;;;;;0.20;0.20;;;;;;;;;;5007590;28;20448;-81
2023/06/18 09:29:09;;;;;;;0.20;0.13;;;;;;;;;;5011718;28;20482;-80
2023/06/18 09:31:36;;;;;;;0.28;0.17;;;;;;;;;;4994350;28;20060;-80
2023/06/18 09:34:15;;;;;;;0.20;0.20;;;;;;;;;;5001852;28;20111;-80
2023/06/18 09:36:42;;;;;;;0.55;0.40;;;;;;;;;;4997325;28;20111;-80
2023/06/18 09:39:35;;;;;;;0.20;0.20;;;;;;;;;;5017415;28;20547;-81
2023/06/18 09:42:13;;;;;;;0.20;0.20;;;;;;;;;;5008047;28;20048;-80
2023/06/18 09:44:39;;;;;;;0.20;0.20;;;;;;;;;;4996512;28;20087;-79
2023/06/18 09:47:12;;;;;;;0.20;0.20;;;;;;;;;;5000337;28;20067;-79
2023/06/18 09:49:39;;;;;;;0.28;0.28;;;;;;;;;;4999235;28;20044;-80
2023/06/18 09:52:09;;;;;;;0.35;0.25;;;;;;;;;;5018160;28;20037;-80
2023/06/18 09:54:40;;;;;;;0.30;0.22;;;;;;;;;;5019992;28;20080;-80
2023/06/18 09:57:06;;;;;;;0.22;0.17;;;;;;;;;;5004318;28;20041;-81
2023/06/18 09:59:32;;;;;;;0.22;0.20;;;;;;;;;;5023830;28;20091;-80
2023/06/18 10:01:58;;;;;;;0.20;0.20;;;;;;;;;;4996105;28;21007;-81
2023/06/18 10:04:25;;;;;;;0.20;0.20;;;;;;;;;;5015634;28;20050;-80
2023/06/18 10:06:51;;;;;;;0.20;0.10;;;;;;;;;;5009625;28;20765;-80
2023/06/18 10:09:19;;;;;;;0.28;0.10;;;;;;;;;;5012249;28;20033;-80
2023/06/18 10:11:45;;;;;;;0.60;0.30;;;;;;;;;;5013680;28;20108;-80
2023/06/18 10:14:12;;;;;;;0.20;0.10;;;;;;;;;;4997543;28;20056;-80
2023/06/18 10:16:41;;;;;;;0.40;0.20;;;;;;;;;;5000562;28;20060;-79
2023/06/18 10:19:15;;;;;;;0.60;0.30;;;;;;;;;;5036401;28;20052;-81
2023/06/18 10:21:49;;;;;;;0.20;0.10;;;;;;;;;;5011725;28;20097;-81
2023/06/18 10:24:21;;;;;;;0.28;0.20;;;;;;;;;;5015923;28;20068;-80
2023/06/18 10:26:47;;;;;;;0.22;0.13;;;;;;;;;;4994238;28;20076;-79
2023/06/18 10:29:13;;;;;;;0.20;0.20;;;;;;;;;;5004233;28;20064;-81
2023/06/18 10:31:39;;;;;;;0.20;0.10;;;;;;;;;;5014172;28;20100;-80
2023/06/18 10:34:06;;;;;;;0.30;0.30;;;;;;;;;;5016945;28;20045;-81
2023/06/18 10:36:32;;;;;;;0.50;0.40;;;;;;;;;;4991618;28;20061;-80
2023/06/18 10:38:59;;;;;;;0.20;0.10;;;;;;;;;;5027445;28;20049;-81
2023/06/18 10:41:27;;;;;;;0.20;0.15;;;;;;;;;;4990044;28;20068;-80
2023/06/18 10:43:56;;;;;;;0.20;0.10;;;;;;;;;;5011291;28;20501;-83
2023/06/18 10:46:22;;;;;;;0.20;0.20;;;;;;;;;;4982122;28;20033;-79
2023/06/18 10:49:07;;;;;;;0.20;0.20;;;;;;;;;;4999522;28;20037;-81
2023/06/18 10:51:33;;;;;;;0.20;0.10;;;;;;;;;;4988879;28;20068;-81
2023/06/18 10:54:37;;;;;;;0.40;0.17;;;;;;;;;;5006250;28;20132;-81
2023/06/18 10:57:04;;;;;;;0.30;0.20;;;;;;;;;;4934535;28;20840;-81
2023/06/18 10:59:43;;;;;;;0.22;0.20;;;;;;;;;;4990512;28;20053;-80
2023/06/18 11:02:10;;;;;;;0.40;0.32;;;;;;;;;;5004530;28;20029;-80
2023/06/18 11:04:36;;;;;;;0.28;0.25;;;;;;;;;;5003299;28;20037;-81
2023/06/18 11:07:12;;;;;;;0.20;0.20;;;;;;;;;;4993781;28;20045;-81
2023/06/18 11:09:48;;;;;;;0.30;0.30;;;;;;;;;;5001100;28;20601;-81
2023/06/18 11:12:17;;;;;;;0.20;0.17;;;;;;;;;;5014364;28;20065;-80
2023/06/18 11:14:43;;;;;;;0.55;0.55;;;;;;;;;;4993046;28;20049;-78
2023/06/18 11:17:10;;;;;;;0.50;0.30;;;;;;;;;;5013864;28;20489;-80
2023/06/18 11:19:36;;;;;;;0.38;0.30;;;;;;;;;;5025502;28;20037;-81
2023/06/18 11:22:03;;;;;;;0.20;0.20;;;;;;;;;;5006916;28;20038;-81
2023/06/18 11:24:29;;;;;;;0.40;0.30;;;;;;;;;;5023160;28;20053;-80
2023/06/18 11:26:55;;;;;;;0.20;0.20;;;;;;;;;;5018582;28;20537;-80
2023/06/18 11:29:22;;;;;;;0.20;0.10;;;;;;;;;;5024190;28;20041;-81
2023/06/18 11:31:48;;;;;;;0.30;0.20;;;;;;;;;;5002902;28;20041;-80
2023/06/18 11:34:14;;;;;;;0.30;0.28;;;;;;;;;;5022436;28;20083;-81
2023/06/18 11:36:41;;;;;;;0.20;0.10;;;;;;;;;;5002502;28;20118;-81
2023/06/18 11:39:07;;;;;;;0.55;0.40;;;;;;;;;;5004718;28;20049;-81
2023/06/18 11:41:34;;;;;;;0.20;0.10;;;;;;;;;;5013308;28;20462;-81
2023/06/18 11:44:00;;;;;;;0.20;0.20;;;;;;;;;;5021762;28;20554;-80
2023/06/18 11:46:29;;;;;;;0.60;0.25;;;;;;;;;;5020803;28;20452;-80
2023/06/18 11:48:55;;;;;;;0.38;0.20;;;;;;;;;;5017549;28;20597;-80
2023/06/18 11:51:25;;;;;;;0.38;0.20;;;;;;;;;;4995186;28;20048;-82
2023/06/18 11:53:52;;;;;;;0.30;0.20;;;;;;;;;;5002932;28;20045;-81
2023/06/18 11:56:21;;;;;;;0.20;0.10;;;;;;;;;;5015769;28;22473;-81
2023/06/18 11:58:48;;;;;;;0.30;0.30;;;;;;;;;;5003940;28;20164;-78
2023/06/18 12:01:16;;;;;;;0.20;0.20;;;;;;;;;;5005856;28;20086;-82
2023/06/18 12:03:42;;;;;;;0.20;0.10;;;;;;;;;;5000451;28;20037;-81
2023/06/18 12:06:12;;;;;;;0.20;0.20;;;;;;;;;;5000203;28;20045;-81
2023/06/18 12:08:43;;;;;;;0.25;0.22;;;;;;;;;;5018722;28;20084;-80
2023/06/18 12:11:13;;;;;;;0.20;0.20;;;;;;;;;;5015638;28;20056;-82
2023/06/18 12:13:41;;;;;;;0.30;0.28;;;;;;;;;;4991491;28;20033;-82
2023/06/18 12:16:11;;;;;;;0.30;0.30;;;;;;;;;;5013346;28;20490;-80
2023/06/18 12:18:40;;;;;;;0.22;0.22;;;;;;;;;;4995900;28;20040;-80
2023/06/18 12:21:07;;;;;;;0.30;0.30;;;;;;;;;;5009578;28;20045;-80
2023/06/18 12:23:34;;;;;;;0.43;0.38;;;;;;;;;;4989765;28;20038;-82
2023/06/18 12:26:00;;;;;;;0.20;0.20;;;;;;;;;;5010260;28;20151;-80
2023/06/18 12:28:28;;;;;;;0.20;0.17;;;;;;;;;;5002844;28;20033;-81
2023/06/18 12:30:54;;;;;;;0.20;0.20;;;;;;;;;;5018497;28;20046;-81
2023/06/18 12:33:21;;;;;;;0.20;0.20;;;;;;;;;;5021590;28;20041;-83
2023/06/18 12:35:50;;;;;;;0.20;0.10;;;;;;;;;;5021004;28;20043;-80
2023/06/18 12:38:16;;;;;;;0.20;0.10;;;;;;;;;;5020621;28;20048;-80
2023/06/18 12:40:55;;;;;;;0.20;0.10;;;;;;;;;;5012277;28;20107;-80
2023/06/18 12:43:22;;;;;;;0.22;0.20;;;;;;;;;;5003593;28;20501;-80
2023/06/18 12:45:52;;;;;;;0.20;0.20;;;;;;;;;;5021112;28;20044;-80
2023/06/18 12:48:25;;;;;;;0.32;0.20;;;;;;;;;;5012102;23;20435;-85
2023/06/18 12:50:52;;;;;;;0.20;0.10;;;;;;;;;;4971624;28;20041;-84
2023/06/18 12:53:20;;;;;;;0.35;0.25;;;;;;;;;;4992555;28;20046;-81
2023/06/18 12:55:48;;;;;;;0.20;0.20;;;;;;;;;;4972661;28;20041;-84
2023/06/18 12:58:14;;;;;;;0.30;0.30;;;;;;;;;;4981281;28;20084;-82
2023/06/18 13:00:40;;;;;;;0.30;0.28;;;;;;;;;;4992702;28;20156;-83
2023/06/18 13:03:08;;;;;;;1.13;0.20;;;;;;;;;;4998783;28;20042;-83
2023/06/18 13:05:35;;;;;;;0.20;0.20;;;;;;;;;;4993042;28;20072;-82
2023/06/18 13:08:02;;;;;;;0.20;0.17;;;;;;;;;;4999203;28;20037;-83
2023/06/18 13:10:28;;;;;;;0.40;0.30;;;;;;;;;;4997084;28;20041;-82
2023/06/18 13:12:54;;;;;;;0.20;0.20;;;;;;;;;;4996789;28;20137;-82
2023/06/18 13:15:21;;;;;;;0.30;0.30;;;;;;;;;;4981307;28;20068;-80
2023/06/18 13:17:47;;;;;;;0.40;0.20;;;;;;;;;;4970446;28;20069;-81
2023/06/18 13:20:13;;;;;;;0.50;0.40;;;;;;;;;;4977456;28;20045;-81
2023/06/18 13:22:39;;;;;;;0.30;0.30;;;;;;;;;;4978436;28;20046;-82
2023/06/18 13:25:06;;;;;;;0.30;0.28;;;;;;;;;;4986434;28;20046;-80
2023/06/18 13:27:32;;;;;;;0.30;0.30;;;;;;;;;;4976253;28;20046;-79
2023/06/18 13:29:58;;;;;;;0.20;0.20;;;;;;;;;;4980149;28;20552;-81
2023/06/18 13:32:25;;;;;;;0.30;0.30;;;;;;;;;;4994098;28;20045;-81
2023/06/18 13:34:51;;;;;;;0.20;0.20;;;;;;;;;;5008497;28;20091;-81
2023/06/18 13:37:17;;;;;;;0.77;0.47;;;;;;;;;;4988772;28;20361;-82
2023/06/18 13:39:45;;;;;;;0.30;0.30;;;;;;;;;;4998206;28;20061;-84
2023/06/18 13:42:11;;;;;;;0.30;0.30;;;;;;;;;;4997990;28;20038;-81
2023/06/18 13:44:38;;;;;;;0.20;0.10;;;;;;;;;;4982760;28;20059;-81
2023/06/18 13:47:04;;;;;;;0.45;0.20;;;;;;;;;;4983752;28;20052;-82
2023/06/18 13:49:30;;;;;;;0.20;0.20;;;;;;;;;;4987845;28;20030;-83
2023/06/18 13:51:58;;;;;;;0.50;0.30;;;;;;;;;;5000838;28;20080;-84
2023/06/18 13:54:24;;;;;;;0.20;0.20;;;;;;;;;;4976728;28;20079;-81
2023/06/18 13:56:50;;;;;;;0.20;0.20;;;;;;;;;;4986421;28;20065;-84
2023/06/18 13:59:16;;;;;;;0.38;0.20;;;;;;;;;;4998900;28;20045;-82
2023/06/18 14:01:43;;;;;;;0.30;0.22;;;;;;;;;;4999952;28;20045;-81
2023/06/18 14:04:09;;;;;;;0.20;0.20;;;;;;;;;;4999585;28;20059;-81
2023/06/18 14:06:35;;;;;;;0.20;0.10;;;;;;;;;;4987157;28;20053;-81
2023/06/18 14:09:01;;;;;;;0.20;0.20;;;;;;;;;;5004213;28;20037;-81
2023/06/18 14:11:27;;;;;;;0.20;0.20;;;;;;;;;;5005554;28;20486;-83
2023/06/18 14:13:54;;;;;;;0.45;0.40;;;;;;;;;;5006174;28;20039;-80
2023/06/18 14:16:20;;;;;;;0.25;0.22;;;;;;;;;;4991639;28;20045;-81
2023/06/18 14:18:48;;;;;;;0.20;0.10;;;;;;;;;;5007122;28;20106;-81
2023/06/18 14:21:14;;;;;;;0.20;0.13;;;;;;;;;;5000679;28;20064;-82
2023/06/18 14:23:40;;;;;;;0.57;0.35;;;;;;;;;;4993692;28;20676;-82
2023/06/18 14:26:06;;;;;;;0.30;0.30;;;;;;;;;;5001596;28;20506;-81
2023/06/18 14:28:32;;;;;;;0.63;0.35;;;;;;;;;;4997132;28;20041;-80
2023/06/18 14:30:58;;;;;;;0.20;0.20;;;;;;;;;;4986017;28;20529;-81
2023/06/18 14:33:24;;;;;;;0.40;0.30;;;;;;;;;;4982695;28;20045;-81
2023/06/18 14:35:50;;;;;;;0.30;0.20;;;;;;;;;;4989323;28;20037;-82
2023/06/18 14:38:16;;;;;;;0.75;0.40;;;;;;;;;;5000582;28;20080;-81
2023/06/18 14:40:42;;;;;;;0.20;0.20;;;;;;;;;;5003275;28;20033;-81
2023/06/18 14:43:08;;;;;;;0.40;0.20;;;;;;;;;;5001539;28;20120;-83